Time;durP1;ratioP1;P1;durP2;ratioP2;P2;SDS_P1;SDS_P2;PMS_P1;PMS_P2;Temp;Humidity;BMP_temperature;BMP_pressure;BME280_temperature;BME280_humidity;BME280_pressure;Samples;Min_cycle;Max_cycle;Signal;HPM_P1;HPM_P2
2022/06/16 00:00:17;;;;;;;2.70;1.53;;;21.40;99.90;;;;;;1039354;28;20018;-67
2022/06/16 00:00:48;;;;;;;2.67;1.17;;;21.40;99.90;;;;;;1035259;28;20572;-68
2022/06/16 00:01:18;;;;;;;2.60;1.63;;;21.40;99.90;;;;;;1035095;28;20025;-67
2022/06/16 00:01:49;;;;;;;2.17;1.73;;;21.40;99.90;;;;;;1036261;28;20120;-67
2022/06/16 00:02:19;;;;;;;2.63;1.60;;;21.40;99.90;;;;;;1039036;28;20013;-67
2022/06/16 00:02:51;;;;;;;4.10;2.23;;;21.40;99.90;;;;;;1039903;28;20025;-67
2022/06/16 00:03:23;;;;;;;4.10;2.08;;;21.40;99.90;;;;;;1039152;28;20018;-67
2022/06/16 00:03:54;;;;;;;4.78;1.77;;;21.40;99.90;;;;;;1043021;28;20029;-68
2022/06/16 00:04:25;;;;;;;2.60;1.60;;;21.40;99.90;;;;;;1043436;28;20434;-68
2022/06/16 00:04:56;;;;;;;2.15;1.77;;;21.30;99.90;;;;;;1043749;28;20041;-67
2022/06/16 00:05:29;;;;;;;2.23;1.60;;;21.30;99.90;;;;;;1043976;28;20048;-67
2022/06/16 00:06:00;;;;;;;2.53;1.80;;;21.40;99.90;;;;;;1043360;28;20053;-65
2022/06/16 00:06:31;;;;;;;2.92;1.80;;;21.30;99.90;;;;;;1043126;28;20099;-67
2022/06/16 00:07:02;;;;;;;2.63;1.88;;;21.30;99.90;;;;;;1043647;28;20222;-68
2022/06/16 00:07:33;;;;;;;3.50;1.70;;;21.30;99.90;;;;;;1043160;28;20737;-67
2022/06/16 00:08:06;;;;;;;5.67;2.23;;;21.40;99.90;;;;;;1044445;28;20100;-65
2022/06/16 00:08:36;;;;;;;3.80;1.83;;;21.30;99.90;;;;;;1043518;28;20029;-67
2022/06/16 00:09:07;;;;;;;1.70;1.53;;;21.30;99.90;;;;;;1043338;28;20025;-66
2022/06/16 00:09:37;;;;;;;2.17;1.50;;;21.30;99.90;;;;;;1043197;28;20150;-67
2022/06/16 00:10:09;;;;;;;2.20;1.60;;;21.30;99.90;;;;;;1043457;28;20107;-66
2022/06/16 00:11:30;;;;;;;2.00;1.70;;;21.30;99.90;;;;;;1043384;28;20044;-67
2022/06/16 00:12:01;;;;;;;3.03;2.00;;;21.30;99.90;;;;;;1043851;28;20056;-67
2022/06/16 00:12:32;;;;;;;2.00;1.83;;;21.30;99.90;;;;;;1043396;28;20021;-65
2022/06/16 00:13:03;;;;;;;5.43;1.90;;;21.30;99.90;;;;;;1044259;28;20134;-67
2022/06/16 00:13:37;;;;;;;3.50;2.13;;;21.30;99.90;;;;;;1043535;28;20029;-65
2022/06/16 00:14:08;;;;;;;1.73;1.45;;;21.20;99.90;;;;;;1043612;28;20029;-66
2022/06/16 00:14:39;;;;;;;3.10;1.60;;;21.30;99.90;;;;;;1043570;28;20021;-66
2022/06/16 00:15:12;;;;;;;2.20;1.90;;;21.30;99.90;;;;;;1043922;28;20460;-66
2022/06/16 00:15:43;;;;;;;3.40;1.35;;;21.30;99.90;;;;;;1043808;28;20047;-66
2022/06/16 00:16:14;;;;;;;1.40;1.30;;;21.30;99.90;;;;;;1043761;28;20021;-66
2022/06/16 00:16:45;;;;;;;2.73;1.60;;;21.30;99.90;;;;;;1043764;28;20101;-66
2022/06/16 00:17:15;;;;;;;3.08;1.73;;;21.30;99.90;;;;;;1043796;28;20083;-69
2022/06/16 00:17:46;;;;;;;3.43;1.90;;;21.30;99.90;;;;;;1043659;28;20037;-66
2022/06/16 00:18:17;;;;;;;1.90;1.70;;;21.20;99.90;;;;;;1044063;28;20431;-66
2022/06/16 00:18:48;;;;;;;2.70;1.90;;;21.20;99.90;;;;;;1043710;28;20274;-66
2022/06/16 00:19:18;;;;;;;3.40;2.45;;;21.20;99.90;;;;;;1043974;28;20017;-66
2022/06/16 00:19:49;;;;;;;2.30;1.70;;;21.20;99.90;;;;;;1043621;28;20029;-68
2022/06/16 00:20:21;;;;;;;3.05;1.55;;;21.20;99.90;;;;;;1043311;28;20560;-66
2022/06/16 00:20:52;;;;;;;3.53;1.60;;;21.20;99.90;;;;;;1043695;28;20119;-67
2022/06/16 00:21:22;;;;;;;2.17;1.70;;;21.20;99.90;;;;;;1043087;28;20047;-66
2022/06/16 00:21:53;;;;;;;3.00;1.60;;;21.20;99.90;;;;;;1043363;28;20451;-66
2022/06/16 00:22:24;;;;;;;2.23;1.87;;;21.20;99.90;;;;;;1043597;28;20075;-67
2022/06/16 00:22:54;;;;;;;3.93;1.73;;;21.20;99.90;;;;;;1043626;28;20104;-65
2022/06/16 00:23:25;;;;;;;2.13;1.70;;;21.20;99.90;;;;;;1043992;28;20017;-66
2022/06/16 00:23:55;;;;;;;3.13;1.70;;;21.10;99.90;;;;;;1043665;28;20687;-66
2022/06/16 00:24:29;;;;;;;2.37;2.10;;;21.10;99.90;;;;;;1043511;28;20087;-66
2022/06/16 00:24:59;;;;;;;2.70;1.63;;;21.10;99.90;;;;;;1043588;28;20024;-67
2022/06/16 00:25:32;;;;;;;4.13;2.00;;;21.10;99.90;;;;;;1043398;28;20052;-66
2022/06/16 00:26:03;;;;;;;4.50;1.73;;;21.10;99.90;;;;;;1044182;28;20593;-66
2022/06/16 00:26:33;;;;;;;2.97;1.60;;;21.10;99.90;;;;;;1043408;28;20723;-66
2022/06/16 00:27:04;;;;;;;1.97;1.53;;;21.10;99.90;;;;;;1043301;28;20013;-66
2022/06/16 00:27:35;;;;;;;2.58;1.83;;;21.10;99.90;;;;;;1043179;28;20542;-67
2022/06/16 00:28:06;;;;;;;3.20;1.92;;;21.10;99.90;;;;;;1039044;28;20055;-66
2022/06/16 00:28:37;;;;;;;4.10;1.80;;;21.10;99.90;;;;;;1039669;28;20022;-66
2022/06/16 00:29:07;;;;;;;2.30;1.67;;;21.10;99.90;;;;;;1043203;28;20021;-66
2022/06/16 00:29:39;;;;;;;2.33;1.93;;;;;;;;;;1042804;28;20017;-66
2022/06/16 00:30:11;;;;;;;2.00;1.80;;;21.10;99.90;;;;;;1043431;28;20013;-69
2022/06/16 00:30:43;;;;;;;2.28;1.80;;;;;;;;;;1043452;28;20032;-66
2022/06/16 00:31:16;;;;;;;2.65;1.80;;;21.00;99.90;;;;;;1043918;28;20047;-66
2022/06/16 00:31:47;;;;;;;2.80;1.90;;;21.10;99.90;;;;;;1043560;28;20033;-68
2022/06/16 00:32:18;;;;;;;3.07;2.20;;;21.60;99.90;;;;;;1043521;28;20025;-67
2022/06/16 00:32:49;;;;;;;2.70;1.50;;;21.10;99.90;;;;;;1043557;28;20056;-65
2022/06/16 00:33:19;;;;;;;3.17;1.85;;;21.10;99.90;;;;;;1043271;28;20966;-65
2022/06/16 00:33:51;;;;;;;2.60;1.70;;;21.00;99.90;;;;;;1043421;28;20677;-66
2022/06/16 00:34:21;;;;;;;2.92;1.70;;;21.10;99.90;;;;;;1043298;28;20017;-66
2022/06/16 00:34:52;;;;;;;2.10;1.70;;;21.10;99.90;;;;;;1043001;28;20024;-67
2022/06/16 00:35:23;;;;;;;2.50;1.67;;;21.10;99.90;;;;;;1043679;28;20027;-68
2022/06/16 00:35:53;;;;;;;3.20;1.97;;;21.10;99.90;;;;;;1043377;28;20142;-66
2022/06/16 00:36:24;;;;;;;4.03;2.60;;;21.10;99.90;;;;;;1043701;28;20017;-67
2022/06/16 00:36:54;;;;;;;2.83;1.90;;;21.10;99.90;;;;;;1043280;28;20061;-65
2022/06/16 00:37:25;;;;;;;2.10;1.67;;;21.10;99.90;;;;;;1043629;28;20163;-68
2022/06/16 00:37:56;;;;;;;1.87;1.73;;;21.10;99.90;;;;;;1043161;28;20025;-69
2022/06/16 00:38:27;;;;;;;2.40;1.50;;;21.10;99.90;;;;;;1043543;28;20017;-66
2022/06/16 00:38:58;;;;;;;3.05;2.05;;;21.10;99.90;;;;;;1043848;28;20017;-67
2022/06/16 00:39:28;;;;;;;2.93;1.80;;;21.00;99.90;;;;;;1043056;28;20476;-65
2022/06/16 00:39:59;;;;;;;3.20;1.70;;;21.00;99.90;;;;;;1043142;28;20157;-66
2022/06/16 00:40:29;;;;;;;2.67;1.77;;;21.00;99.90;;;;;;1043130;28;20464;-67
2022/06/16 00:41:00;;;;;;;1.83;1.43;;;21.00;99.90;;;;;;1042965;28;20112;-67
2022/06/16 00:41:31;;;;;;;2.35;1.40;;;21.00;99.90;;;;;;1044097;28;20010;-66
2022/06/16 00:42:11;;;;;;;2.90;2.00;;;21.00;99.90;;;;;;1043236;28;20539;-66
2022/06/16 00:42:44;;;;;;;2.75;1.65;;;21.00;99.90;;;;;;1043656;28;20017;-67
2022/06/16 00:43:14;;;;;;;1.67;1.35;;;21.00;99.90;;;;;;1043173;28;20013;-66
2022/06/16 00:43:45;;;;;;;2.47;1.80;;;21.00;99.90;;;;;;1043359;28;20053;-70
2022/06/16 00:44:31;;;;;;;2.67;1.80;;;21.00;99.90;;;;;;1039244;28;20022;-66
2022/06/16 00:45:03;;;;;;;2.38;1.85;;;20.90;99.90;;;;;;1039375;28;20101;-67
2022/06/16 00:46:02;;;;;;;2.15;1.35;;;20.90;99.90;;;;;;1039264;28;20483;-66
2022/06/16 00:46:33;;;;;;;2.22;1.60;;;20.90;99.90;;;;;;1039486;28;20037;-67
2022/06/16 00:47:04;;;;;;;1.97;1.30;;;20.90;99.90;;;;;;1038821;28;20024;-67
2022/06/16 00:47:35;;;;;;;3.75;2.13;;;20.90;99.90;;;;;;1038687;28;20109;-68
2022/06/16 00:48:05;;;;;;;2.40;1.57;;;20.90;99.90;;;;;;1039534;28;20010;-67
2022/06/16 00:48:45;;;;;;;2.53;1.87;;;20.90;99.90;;;;;;1039249;28;20099;-67
2022/06/16 00:49:16;;;;;;;3.38;1.85;;;20.90;99.90;;;;;;1039603;28;20012;-67
2022/06/16 00:49:49;;;;;;;2.53;1.70;;;20.90;99.90;;;;;;1039438;28;20043;-67
2022/06/16 00:50:20;;;;;;;3.22;2.17;;;20.90;99.90;;;;;;1039080;28;20483;-67
2022/06/16 00:51:14;;;;;;;2.07;1.40;;;20.90;99.90;;;;;;1039325;28;20672;-68
2022/06/16 00:51:55;;;;;;;2.10;1.65;;;20.80;99.90;;;;;;1035784;28;20068;-67
2022/06/16 00:52:31;;;;;;;5.00;1.70;;;20.80;99.90;;;;;;1039099;28;20018;-67
2022/06/16 00:53:02;;;;;;;2.95;1.77;;;20.80;99.90;;;;;;1039405;28;20361;-67
2022/06/16 00:53:33;;;;;;;1.80;1.43;;;20.80;99.90;;;;;;1038803;28;20291;-67
2022/06/16 00:54:20;;;;;;;2.40;1.80;;;20.80;99.90;;;;;;1039185;28;20021;-69
2022/06/16 00:55:03;;;;;;;2.67;1.70;;;20.80;99.90;;;;;;1038774;28;20099;-67
2022/06/16 00:55:34;;;;;;;1.83;1.65;;;20.80;99.90;;;;;;1038858;28;20017;-67
2022/06/16 00:56:07;;;;;;;3.20;1.87;;;20.80;99.90;;;;;;1039418;28;20009;-68
2022/06/16 00:56:38;;;;;;;2.70;1.73;;;20.80;99.90;;;;;;1039035;28;20031;-67
2022/06/16 00:57:13;;;;;;;1.87;1.40;;;20.70;99.90;;;;;;1039231;28;20010;-67
2022/06/16 00:57:48;;;;;;;4.43;2.22;;;20.70;99.90;;;;;;1038904;28;20021;-67
2022/06/16 00:58:21;;;;;;;3.97;1.90;;;20.70;99.90;;;;;;1039078;28;20009;-67
2022/06/16 00:58:57;;;;;;;2.28;1.45;;;20.70;99.90;;;;;;1038809;28;20412;-67
2022/06/16 00:59:29;;;;;;;3.55;1.63;;;20.70;99.90;;;;;;1039276;28;20024;-67
2022/06/16 01:00:04;;;;;;;2.35;1.52;;;20.70;99.90;;;;;;1038679;28;20043;-67
2022/06/16 01:00:46;;;;;;;3.67;2.30;;;20.70;99.90;;;;;;1038900;28;20412;-67
2022/06/16 01:01:20;;;;;;;2.80;1.63;;;20.70;99.90;;;;;;1038763;28;20014;-67
2022/06/16 01:01:51;;;;;;;2.13;1.40;;;20.70;99.90;;;;;;1039016;28;20121;-69
2022/06/16 01:02:24;;;;;;;1.93;1.67;;;20.70;99.90;;;;;;1039146;28;20115;-67
2022/06/16 01:02:54;;;;;;;3.63;1.80;;;20.70;99.90;;;;;;1038770;28;20268;-67
2022/06/16 01:05:06;;;;;;;3.05;1.70;;;20.70;99.90;;;;;;1039171;28;20040;-67
2022/06/16 01:05:36;;;;;;;2.15;1.67;;;20.70;99.90;;;;;;1039288;28;20043;-67
2022/06/16 01:06:28;;;;;;;2.83;1.80;;;20.70;99.90;;;;;;1039181;28;20045;-67
2022/06/16 01:07:03;;;;;;;1.50;1.40;;;20.70;99.90;;;;;;1039487;28;20120;-67
2022/06/16 01:07:39;;;;;;;2.42;1.48;;;20.70;99.90;;;;;;1039321;28;20027;-67
2022/06/16 01:08:10;;;;;;;2.28;1.80;;;20.60;99.90;;;;;;1039057;28;20069;-67
2022/06/16 01:08:40;;;;;;;2.60;1.63;;;20.60;99.90;;;;;;1039355;28;20148;-67
2022/06/16 01:09:20;;;;;;;1.90;1.50;;;20.60;99.90;;;;;;1039196;28;20040;-66
2022/06/16 01:09:53;;;;;;;3.00;1.90;;;20.60;99.90;;;;;;1039434;28;20093;-67
2022/06/16 01:10:31;;;;;;;1.85;1.50;;;20.60;99.90;;;;;;1046370;28;20213;-67
2022/06/16 01:11:10;;;;;;;1.58;1.42;;;20.60;99.90;;;;;;1047266;28;20100;-67
2022/06/16 01:13:41;;;;;;;2.55;1.95;;;20.60;99.90;;;;;;1047711;28;20149;-67
2022/06/16 01:14:24;;;;;;;2.05;1.63;;;20.60;99.90;;;;;;1047462;28;20048;-67
2022/06/16 01:15:15;;;;;;;3.35;2.10;;;20.60;99.90;;;;;;1047790;28;20021;-67
2022/06/16 01:16:06;;;;;;;3.22;1.90;;;20.60;99.90;;;;;;1047437;28;20666;-68
2022/06/16 01:16:43;;;;;;;1.60;1.48;;;20.60;99.90;;;;;;1047279;28;20017;-68
2022/06/16 01:17:59;;;;;;;2.88;1.83;;;20.60;99.90;;;;;;1047495;28;20021;-67
2022/06/16 01:18:54;;;;;;;2.50;1.75;;;20.60;99.90;;;;;;1047592;28;20020;-67
2022/06/16 01:19:53;;;;;;;2.33;1.60;;;20.50;99.90;;;;;;1047611;28;20016;-67
2022/06/16 01:21:02;;;;;;;2.03;1.50;;;20.60;99.90;;;;;;1047833;28;20142;-67
2022/06/16 01:21:52;;;;;;;3.65;2.28;;;20.60;99.90;;;;;;1044134;28;20443;-67
2022/06/16 01:22:56;;;;;;;4.30;2.00;;;20.50;99.90;;;;;;1043015;28;20024;-67
2022/06/16 01:24:04;;;;;;;2.78;1.88;;;20.50;99.90;;;;;;1043044;28;20169;-66
2022/06/16 01:25:08;;;;;;;2.50;1.55;;;20.50;99.90;;;;;;1043320;28;20033;-67
2022/06/16 01:26:02;;;;;;;1.90;1.60;;;20.50;99.90;;;;;;1043706;28;20021;-67
2022/06/16 01:27:10;;;;;;;1.83;1.67;;;20.40;99.90;;;;;;1043161;28;20025;-67
2022/06/16 01:27:57;;;;;;;2.42;1.60;;;;;;;;;;1043425;28;20108;-70
2022/06/16 01:28:43;;;;;;;2.85;1.90;;;20.40;99.90;;;;;;1043086;28;20108;-66
2022/06/16 01:29:33;;;;;;;2.67;1.42;;;20.40;99.90;;;;;;1043118;28;20021;-69
2022/06/16 01:30:08;;;;;;;2.85;1.60;;;20.40;99.90;;;;;;1043187;28;20056;-66
2022/06/16 01:30:53;;;;;;;2.05;1.80;;;20.40;99.90;;;;;;1043262;28;20019;-66
2022/06/16 01:32:11;;;;;;;4.10;2.10;;;20.30;99.90;;;;;;1042651;28;20429;-66
2022/06/16 01:32:55;;;;;;;3.58;2.03;;;20.40;99.90;;;;;;1043044;28;20025;-66
2022/06/16 01:33:34;;;;;;;4.45;2.00;;;20.40;99.90;;;;;;1042864;28;20036;-66
2022/06/16 01:34:05;;;;;;;3.35;2.17;;;;;;;;;;1043367;28;20025;-67
2022/06/16 01:35:02;;;;;;;1.93;1.50;;;20.30;99.90;;;;;;1043079;28;20024;-66
2022/06/16 01:35:41;;;;;;;2.54;1.70;;;20.30;99.90;;;;;;1043404;28;20737;-66
2022/06/16 01:36:23;;;;;;;3.00;1.80;;;20.30;99.90;;;;;;1043317;28;20103;-66
2022/06/16 01:36:58;;;;;;;3.55;2.13;;;20.30;99.90;;;;;;1043143;28;20112;-66
2022/06/16 01:37:50;;;;;;;2.38;1.70;;;20.30;99.90;;;;;;1043340;28;20083;-66
2022/06/16 01:38:55;;;;;;;2.88;2.00;;;20.30;99.90;;;;;;1043802;28;20074;-66
2022/06/16 01:39:49;;;;;;;2.90;1.67;;;20.30;99.90;;;;;;1038536;28;20102;-67
2022/06/16 01:40:37;;;;;;;1.67;1.58;;;20.20;99.90;;;;;;1042856;28;20101;-67
2022/06/16 01:41:32;;;;;;;2.60;1.55;;;20.20;99.90;;;;;;1039097;28;20666;-66
2022/06/16 01:42:15;;;;;;;5.60;1.83;;;20.30;99.90;;;;;;1038697;28;20021;-67
2022/06/16 01:42:58;;;;;;;3.55;1.85;;;20.30;99.90;;;;;;1039102;28;20772;-67
2022/06/16 01:43:35;;;;;;;3.38;1.77;;;20.20;99.90;;;;;;1039679;28;20052;-67
2022/06/16 01:44:11;;;;;;;2.53;1.80;;;20.20;99.90;;;;;;1040511;28;20199;-67
2022/06/16 01:44:55;;;;;;;3.47;1.70;;;20.20;99.90;;;;;;1043133;28;20036;-66
2022/06/16 01:45:42;;;;;;;3.97;1.70;;;20.20;99.90;;;;;;1042868;28;20104;-67
2022/06/16 01:46:26;;;;;;;2.67;1.83;;;20.20;99.90;;;;;;1043533;28;20043;-68
2022/06/16 01:47:02;;;;;;;2.85;1.60;;;20.40;99.90;;;;;;1043303;28;20017;-67
2022/06/16 01:47:34;;;;;;;3.00;1.70;;;20.20;99.90;;;;;;1043232;28;20104;-67
2022/06/16 01:48:09;;;;;;;4.35;1.67;;;20.20;99.90;;;;;;1042931;28;20071;-67
2022/06/16 01:48:42;;;;;;;2.40;1.83;;;20.20;99.90;;;;;;1043243;28;20040;-67
2022/06/16 01:49:21;;;;;;;4.22;2.20;;;20.20;99.90;;;;;;1038734;28;20017;-67
2022/06/16 01:49:57;;;;;;;2.63;1.65;;;20.20;99.90;;;;;;1038825;28;20027;-67
2022/06/16 01:50:34;;;;;;;2.55;1.83;;;20.20;99.90;;;;;;1038889;28;20053;-66
2022/06/16 01:51:06;;;;;;;2.35;1.70;;;20.20;99.90;;;;;;1039659;28;20034;-68
2022/06/16 01:51:40;;;;;;;3.10;1.92;;;20.20;99.90;;;;;;1039343;28;20810;-67
2022/06/16 01:52:18;;;;;;;1.70;1.60;;;20.20;99.90;;;;;;1039272;28;20036;-67
2022/06/16 01:53:01;;;;;;;1.92;1.63;;;20.20;99.90;;;;;;1039044;28;20044;-67
2022/06/16 01:53:43;;;;;;;2.90;1.63;;;20.10;99.90;;;;;;1038940;28;20022;-68
2022/06/16 01:54:19;;;;;;;3.45;2.20;;;20.10;99.90;;;;;;1039399;28;20045;-67
2022/06/16 01:55:01;;;;;;;2.13;1.60;;;20.20;99.90;;;;;;1039085;28;20033;-67
2022/06/16 01:55:35;;;;;;;3.08;1.77;;;20.10;99.90;;;;;;1038728;28;20045;-66
2022/06/16 01:56:21;;;;;;;3.40;2.35;;;20.10;99.90;;;;;;1039345;28;20021;-65
2022/06/16 01:57:01;;;;;;;3.55;1.73;;;20.10;99.90;;;;;;1039275;28;20036;-66
2022/06/16 01:57:42;;;;;;;1.70;1.55;;;20.00;99.90;;;;;;1038987;28;20570;-68
2022/06/16 01:58:22;;;;;;;3.08;1.80;;;20.10;99.90;;;;;;1039176;28;20453;-65
2022/06/16 01:59:05;;;;;;;2.20;1.92;;;20.10;99.90;;;;;;1039207;28;20105;-68
2022/06/16 01:59:49;;;;;;;3.35;2.42;;;20.10;99.90;;;;;;1039144;28;20397;-66
2022/06/16 02:00:22;;;;;;;3.83;1.77;;;20.10;99.90;;;;;;1039301;28;20051;-66
2022/06/16 02:00:56;;;;;;;2.25;1.88;;;20.10;99.90;;;;;;1038635;28;20439;-68
2022/06/16 02:01:34;;;;;;;2.28;1.70;;;20.10;99.90;;;;;;1039530;28;20439;-66
2022/06/16 02:02:11;;;;;;;2.50;1.65;;;20.10;99.90;;;;;;1039277;28;20013;-66
2022/06/16 02:02:46;;;;;;;2.97;1.67;;;20.00;99.90;;;;;;1041632;28;20090;-66
2022/06/16 02:03:41;;;;;;;2.33;1.85;;;20.00;99.90;;;;;;1043037;28;20020;-66
2022/06/16 02:04:21;;;;;;;2.08;1.80;;;20.00;99.90;;;;;;1038949;28;20041;-67
2022/06/16 02:05:08;;;;;;;2.25;1.80;;;20.00;99.90;;;;;;1039254;28;20060;-66
2022/06/16 02:05:39;;;;;;;2.28;1.70;;;20.00;99.90;;;;;;1039317;28;20527;-66
2022/06/16 02:06:17;;;;;;;3.47;1.80;;;20.00;99.90;;;;;;1038326;28;20619;-68
2022/06/16 02:06:52;;;;;;;2.28;1.90;;;20.00;99.90;;;;;;1039475;28;20547;-67
2022/06/16 02:07:32;;;;;;;3.03;2.05;;;20.00;99.90;;;;;;1038447;28;20024;-66
2022/06/16 02:08:15;;;;;;;2.05;1.70;;;20.00;99.90;;;;;;1039196;28;20028;-66
2022/06/16 02:08:49;;;;;;;1.98;1.80;;;20.00;99.90;;;;;;1039291;28;20060;-66
2022/06/16 02:09:30;;;;;;;2.88;2.10;;;20.00;99.90;;;;;;1039116;28;20026;-66
2022/06/16 02:10:11;;;;;;;4.20;1.83;;;20.00;99.90;;;;;;1039273;28;20101;-66
2022/06/16 02:10:49;;;;;;;3.63;1.75;;;20.00;99.90;;;;;;1039035;28;20025;-65
2022/06/16 02:11:33;;;;;;;3.03;1.67;;;20.00;99.90;;;;;;1038877;28;20730;-65
2022/06/16 02:12:07;;;;;;;2.05;1.60;;;20.00;99.90;;;;;;1039676;28;20053;-66
2022/06/16 02:12:56;;;;;;;3.00;1.65;;;20.00;99.90;;;;;;1038688;28;20029;-66
2022/06/16 02:13:31;;;;;;;2.53;1.85;;;20.00;99.90;;;;;;1038792;28;20090;-67
2022/06/16 02:14:24;;;;;;;1.90;1.65;;;20.00;99.90;;;;;;1039327;28;20381;-66
2022/06/16 02:14:54;;;;;;;2.55;1.58;;;19.90;99.90;;;;;;1038929;28;20026;-66
2022/06/16 02:16:05;;;;;;;2.33;1.70;;;19.90;99.90;;;;;;1038701;28;20022;-66
2022/06/16 02:16:37;;;;;;;3.35;1.67;;;19.90;99.90;;;;;;1038619;28;20752;-67
2022/06/16 02:17:09;;;;;;;2.65;1.70;;;19.90;99.90;;;;;;1039855;28;20018;-65
2022/06/16 02:17:40;;;;;;;3.05;1.92;;;19.90;99.90;;;;;;1038737;28;20022;-65
2022/06/16 02:18:15;;;;;;;3.33;1.85;;;19.90;99.90;;;;;;1039054;28;20557;-67
2022/06/16 02:18:46;;;;;;;1.95;1.77;;;19.90;99.90;;;;;;1038988;28;20025;-66
2022/06/16 02:19:20;;;;;;;2.80;2.10;;;19.90;99.90;;;;;;1039165;28;20033;-67
2022/06/16 02:19:51;;;;;;;3.53;1.80;;;19.90;99.90;;;;;;1039593;28;20037;-65
2022/06/16 02:20:27;;;;;;;2.80;2.07;;;19.90;99.90;;;;;;1039151;28;20022;-66
2022/06/16 02:21:24;;;;;;;2.95;1.70;;;19.90;99.90;;;;;;1038706;28;20117;-66
2022/06/16 02:21:56;;;;;;;2.72;1.63;;;19.90;99.90;;;;;;1042099;28;20377;-65
2022/06/16 02:22:26;;;;;;;4.68;1.92;;;19.90;99.90;;;;;;1043917;28;20027;-66
2022/06/16 02:22:57;;;;;;;2.00;1.53;;;19.90;99.90;;;;;;1043046;28;20032;-66
2022/06/16 02:23:29;;;;;;;2.63;1.80;;;19.90;99.90;;;;;;1043292;28;20131;-66
2022/06/16 02:24:01;;;;;;;3.60;2.33;;;19.90;99.90;;;;;;1042977;28;20105;-66
2022/06/16 02:24:32;;;;;;;4.53;2.15;;;19.90;99.90;;;;;;1043176;28;20087;-67
2022/06/16 02:25:03;;;;;;;2.03;1.77;;;19.90;99.90;;;;;;1043867;28;20072;-67
2022/06/16 02:25:34;;;;;;;2.08;1.70;;;19.90;99.90;;;;;;1043091;28;20579;-66
2022/06/16 02:26:05;;;;;;;2.38;1.50;;;19.90;99.90;;;;;;1042949;28;20525;-65
2022/06/16 02:26:37;;;;;;;3.40;1.80;;;19.80;99.90;;;;;;1043241;28;20534;-67
2022/06/16 02:27:07;;;;;;;2.55;1.70;;;19.90;99.90;;;;;;1043047;28;20017;-67
2022/06/16 02:27:38;;;;;;;3.53;1.70;;;19.90;99.90;;;;;;1043950;28;20020;-66
2022/06/16 02:28:09;;;;;;;3.30;2.10;;;19.90;99.90;;;;;;1043101;28;20484;-66
2022/06/16 02:28:52;;;;;;;2.97;1.50;;;19.80;99.90;;;;;;1043294;28;20433;-66
2022/06/16 02:29:34;;;;;;;2.35;1.98;;;19.80;99.90;;;;;;1042333;28;20283;-66
2022/06/16 02:30:06;;;;;;;2.55;1.83;;;19.80;99.90;;;;;;1043521;28;20036;-67
2022/06/16 02:30:50;;;;;;;2.55;2.00;;;19.80;99.90;;;;;;1042873;28;20017;-66
2022/06/16 02:31:31;;;;;;;2.35;1.80;;;19.80;99.90;;;;;;1042952;28;20062;-66
2022/06/16 02:32:47;;;;;;;2.63;1.95;;;19.80;99.90;;;;;;1043388;28;20143;-66
2022/06/16 02:33:26;;;;;;;2.22;1.92;;;19.80;99.90;;;;;;1041638;28;20076;-66
2022/06/16 02:34:02;;;;;;;3.80;2.13;;;19.80;99.90;;;;;;1042734;28;20009;-66
2022/06/16 02:35:11;;;;;;;2.13;1.77;;;19.80;99.90;;;;;;1042522;28;20656;-65
2022/06/16 02:36:05;;;;;;;2.35;1.73;;;19.80;99.90;;;;;;1040278;28;20136;-66
2022/06/16 02:36:50;;;;;;;4.47;2.45;;;19.80;99.90;;;;;;1042752;28;20533;-66
2022/06/16 02:38:00;;;;;;;3.30;1.80;;;19.80;99.90;;;;;;1043137;28;20482;-66
2022/06/16 02:39:01;;;;;;;2.90;1.80;;;19.80;99.90;;;;;;1043230;28;20021;-66
2022/06/16 02:39:56;;;;;;;3.50;2.30;;;19.70;99.90;;;;;;1043283;28;20021;-66
2022/06/16 02:40:46;;;;;;;2.83;2.25;;;19.70;99.90;;;;;;1044114;28;20520;-68
2022/06/16 02:41:34;;;;;;;3.33;2.25;;;19.70;99.90;;;;;;1043090;28;20098;-66
2022/06/16 02:42:13;;;;;;;3.45;2.00;;;19.70;99.90;;;;;;1043058;28;20559;-66
2022/06/16 02:43:00;;;;;;;2.78;2.20;;;19.70;99.90;;;;;;1043498;28;20128;-67
2022/06/16 02:43:31;;;;;;;2.58;2.15;;;19.70;99.90;;;;;;1043539;28;20059;-65
2022/06/16 02:44:15;;;;;;;2.60;2.00;;;19.70;99.90;;;;;;1042972;28;20035;-65
2022/06/16 02:44:55;;;;;;;2.65;1.90;;;19.70;99.90;;;;;;1043367;28;20029;-67
2022/06/16 02:45:29;;;;;;;2.85;2.55;;;19.70;99.90;;;;;;1039259;28;20017;-67
2022/06/16 02:46:37;;;;;;;3.28;2.15;;;19.70;99.90;;;;;;1038928;28;20536;-66
2022/06/16 02:47:44;;;;;;;4.95;2.38;;;19.70;99.90;;;;;;1038564;28;20026;-66
2022/06/16 02:48:21;;;;;;;2.40;2.00;;;19.60;99.90;;;;;;1039339;28;20022;-67
2022/06/16 02:49:23;;;;;;;5.18;2.03;;;19.60;99.90;;;;;;1039320;28;20030;-66
2022/06/16 02:50:04;;;;;;;3.97;2.45;;;19.60;99.90;;;;;;1037907;28;20041;-66
2022/06/16 02:51:07;;;;;;;2.42;2.00;;;19.60;99.90;;;;;;1039309;28;20120;-65
2022/06/16 02:51:48;;;;;;;3.70;2.10;;;19.60;99.90;;;;;;1037218;28;20124;-65
2022/06/16 02:52:40;;;;;;;3.90;2.20;;;19.60;99.90;;;;;;1038796;28;20063;-67
2022/06/16 02:54:54;;;;;;;2.90;2.22;;;19.60;99.90;;;;;;1038952;28;20368;-67
2022/06/16 02:55:31;;;;;;;2.92;2.20;;;19.60;99.90;;;;;;1038922;28;20104;-65
2022/06/16 02:56:26;;;;;;;5.47;2.50;;;19.60;99.90;;;;;;1039594;28;20112;-67
2022/06/16 02:57:20;;;;;;;3.53;2.28;;;19.60;99.90;;;;;;1038198;28;20064;-67
2022/06/16 02:57:56;;;;;;;5.60;2.15;;;19.60;99.90;;;;;;1038496;28;20032;-67
2022/06/16 02:58:29;;;;;;;3.63;2.15;;;19.60;99.90;;;;;;1039125;28;20119;-66
2022/06/16 02:59:06;;;;;;;3.70;2.10;;;19.60;99.90;;;;;;1039377;28;20034;-67
2022/06/16 02:59:54;;;;;;;3.70;1.95;;;19.60;99.90;;;;;;1038851;28;20492;-67
2022/06/16 03:00:35;;;;;;;3.28;2.10;;;19.60;99.90;;;;;;1039076;28;20022;-67
2022/06/16 03:01:07;;;;;;;4.00;2.85;;;19.60;99.90;;;;;;1039530;28;20084;-68
2022/06/16 03:01:39;;;;;;;2.65;1.90;;;19.60;99.90;;;;;;1039219;28;20353;-67
2022/06/16 03:02:29;;;;;;;3.17;2.17;;;19.50;99.90;;;;;;1039108;28;20018;-67
2022/06/16 03:03:19;;;;;;;2.58;2.03;;;19.50;99.90;;;;;;1038515;28;20033;-67
2022/06/16 03:04:07;;;;;;;5.82;2.67;;;19.50;99.90;;;;;;1041789;28;20021;-67
2022/06/16 03:04:40;;;;;;;3.25;1.98;;;19.50;99.90;;;;;;1042482;28;20214;-66
2022/06/16 03:05:13;;;;;;;4.25;2.50;;;19.50;99.90;;;;;;1042599;28;20207;-67
2022/06/16 03:05:44;;;;;;;2.45;1.80;;;19.50;99.90;;;;;;1038680;28;20021;-67
2022/06/16 03:06:14;;;;;;;3.67;2.10;;;19.50;99.90;;;;;;1039422;28;20028;-69
2022/06/16 03:06:46;;;;;;;2.20;2.00;;;19.50;99.90;;;;;;1043202;28;20053;-66
2022/06/16 03:07:17;;;;;;;3.38;2.13;;;19.50;99.90;;;;;;1042506;28;20021;-67
2022/06/16 03:07:48;;;;;;;2.53;2.17;;;19.50;99.90;;;;;;1043197;28;20094;-67
2022/06/16 03:08:23;;;;;;;3.60;2.43;;;19.50;99.90;;;;;;1042762;28;20623;-67
2022/06/16 03:08:53;;;;;;;2.72;2.45;;;19.50;99.90;;;;;;1043714;28;20032;-68
2022/06/16 03:09:24;;;;;;;2.33;2.13;;;19.50;99.90;;;;;;1042805;28;20032;-67
2022/06/16 03:09:55;;;;;;;4.40;2.63;;;19.50;99.90;;;;;;1043174;28;20032;-67
2022/06/16 03:11:15;;;;;;;3.00;2.05;;;19.50;99.90;;;;;;1044067;28;20035;-67
2022/06/16 03:11:45;;;;;;;3.77;2.10;;;19.50;99.90;;;;;;1044249;28;20037;-66
2022/06/16 03:12:18;;;;;;;4.07;2.63;;;19.50;99.90;;;;;;1043642;28;20036;-69
2022/06/16 03:12:49;;;;;;;4.05;2.60;;;19.50;99.90;;;;;;1043852;28;20033;-67
2022/06/16 03:13:31;;;;;;;2.90;2.20;;;19.50;99.90;;;;;;1043717;28;20025;-67
2022/06/16 03:14:02;;;;;;;2.78;2.13;;;19.50;99.90;;;;;;1044634;28;20468;-68
2022/06/16 03:14:33;;;;;;;4.47;2.38;;;19.50;99.90;;;;;;1043572;28;20070;-67
2022/06/16 03:15:04;;;;;;;3.57;2.37;;;19.40;99.90;;;;;;1044075;28;20029;-67
2022/06/16 03:15:35;;;;;;;2.53;2.08;;;19.40;99.90;;;;;;1043520;28;20074;-67
2022/06/16 03:16:08;;;;;;;3.77;2.00;;;19.40;99.90;;;;;;1044088;28;20182;-67
2022/06/16 03:16:39;;;;;;;4.43;2.25;;;19.40;99.90;;;;;;1043840;28;20554;-66
2022/06/16 03:17:11;;;;;;;3.05;2.15;;;19.40;99.90;;;;;;1043582;28;20456;-67
2022/06/16 03:17:42;;;;;;;3.20;2.30;;;19.40;99.90;;;;;;1043276;28;20455;-65
2022/06/16 03:18:12;;;;;;;3.50;1.97;;;19.40;99.90;;;;;;1043618;28;20021;-67
2022/06/16 03:18:43;;;;;;;4.17;2.10;;;19.40;99.90;;;;;;1043565;28;20025;-67
2022/06/16 03:19:13;;;;;;;4.47;2.20;;;19.40;99.90;;;;;;1044708;28;20028;-68
2022/06/16 03:19:44;;;;;;;2.73;2.30;;;19.40;99.90;;;;;;1043869;28;20100;-65
2022/06/16 03:20:15;;;;;;;2.37;1.90;;;19.40;99.90;;;;;;1044079;28;20032;-65
2022/06/16 03:20:46;;;;;;;4.15;2.28;;;19.40;99.90;;;;;;1043185;28;20291;-66
2022/06/16 03:21:17;;;;;;;2.63;2.23;;;19.40;99.90;;;;;;1043683;28;20524;-68
2022/06/16 03:21:47;;;;;;;3.83;2.53;;;19.40;99.90;;;;;;1041580;28;20021;-69
2022/06/16 03:22:18;;;;;;;3.17;2.60;;;19.40;99.90;;;;;;1039661;28;20321;-66
2022/06/16 03:22:48;;;;;;;4.07;2.60;;;19.40;99.90;;;;;;1039346;28;20041;-66
2022/06/16 03:23:19;;;;;;;4.40;2.40;;;19.40;99.90;;;;;;1039681;28;20017;-66
2022/06/16 03:23:50;;;;;;;2.73;2.13;;;19.40;99.90;;;;;;1039175;28;20071;-66